sensor_id;sensor_type;location;lat;lon;timestamp;pressure;altitude;pressure_sealevel;temperature;humidity
46506;BME280;32220;49.808;9.968;2023-06-01T00:00:19;99127.38;;;17.36;47.04
46506;BME280;32220;49.808;9.968;2023-06-01T00:02:47;99129.88;;;17.28;46.95
46506;BME280;32220;49.808;9.968;2023-06-01T00:05:17;99134.38;;;17.28;47.53
46506;BME280;32220;49.808;9.968;2023-06-01T00:07:45;99128.44;;;17.24;46.95
46506;BME280;32220;49.808;9.968;2023-06-01T00:10:13;99125.28;;;17.19;47.28
46506;BME280;32220;49.808;9.968;2023-06-01T00:12:40;99112.69;;;17.10;47.08
46506;BME280;32220;49.808;9.968;2023-06-01T00:15:09;99126.78;;;17.12;47.47
46506;BME280;32220;49.808;9.968;2023-06-01T00:17:37;99123.66;;;17.07;47.62
46506;BME280;32220;49.808;9.968;2023-06-01T00:20:05;99117.59;;;17.05;47.63
46506;BME280;32220;49.808;9.968;2023-06-01T00:22:35;99123.47;;;16.99;47.48
46506;BME280;32220;49.808;9.968;2023-06-01T00:25:05;99124.69;;;16.95;47.54
46506;BME280;32220;49.808;9.968;2023-06-01T00:27:33;99128.75;;;16.89;47.66
46506;BME280;32220;49.808;9.968;2023-06-01T00:30:02;99123.03;;;16.82;47.42
46506;BME280;32220;49.808;9.968;2023-06-01T00:32:31;99125.41;;;16.76;47.61
46506;BME280;32220;49.808;9.968;2023-06-01T00:34:58;99123.94;;;16.72;48.59
46506;BME280;32220;49.808;9.968;2023-06-01T00:37:26;99116.44;;;16.66;49.58
46506;BME280;32220;49.808;9.968;2023-06-01T00:39:56;99113.19;;;16.62;50.08
46506;BME280;32220;49.808;9.968;2023-06-01T00:42:24;99114.97;;;16.62;49.27
46506;BME280;32220;49.808;9.968;2023-06-01T00:44:51;99117.75;;;16.60;49.18
46506;BME280;32220;49.808;9.968;2023-06-01T00:47:20;99119.72;;;16.58;49.13
46506;BME280;32220;49.808;9.968;2023-06-01T00:49:47;99113.78;;;16.55;48.97
46506;BME280;32220;49.808;9.968;2023-06-01T00:52:16;99117.56;;;16.52;49.02
46506;BME280;32220;49.808;9.968;2023-06-01T00:54:44;99117.81;;;16.49;49.06
46506;BME280;32220;49.808;9.968;2023-06-01T00:57:13;99100.09;;;16.37;49.14
46506;BME280;32220;49.808;9.968;2023-06-01T00:59:41;99110.31;;;16.43;49.13
46506;BME280;32220;49.808;9.968;2023-06-01T01:02:09;99112.38;;;16.39;49.16
46506;BME280;32220;49.808;9.968;2023-06-01T01:04:41;99109.09;;;16.36;49.35
46506;BME280;32220;49.808;9.968;2023-06-01T01:07:15;99106.66;;;16.33;49.42
46506;BME280;32220;49.808;9.968;2023-06-01T01:09:53;99072.84;;;16.11;49.08
46506;BME280;32220;49.808;9.968;2023-06-01T01:12:27;99104.50;;;16.27;49.34
46506;BME280;32220;49.808;9.968;2023-06-01T01:15:01;99097.72;;;16.23;49.23
46506;BME280;32220;49.808;9.968;2023-06-01T01:17:36;99093.38;;;16.10;49.43
46506;BME280;32220;49.808;9.968;2023-06-01T01:20:11;99084.91;;;16.05;50.30
46506;BME280;32220;49.808;9.968;2023-06-01T01:26:03;99107.22;;;16.15;51.45
46506;BME280;32220;49.808;9.968;2023-06-01T01:28:42;99098.72;;;16.10;50.70
46506;BME280;32220;49.808;9.968;2023-06-01T01:31:17;99111.94;;;16.12;50.66
46506;BME280;32220;49.808;9.968;2023-06-01T01:33:46;99103.59;;;16.05;50.59
46506;BME280;32220;49.808;9.968;2023-06-01T01:36:16;99083.91;;;15.95;50.24
46506;BME280;32220;49.808;9.968;2023-06-01T01:38:44;99098.13;;;15.96;50.56
46506;BME280;32220;49.808;9.968;2023-06-01T01:41:12;99107.59;;;16.00;50.46
46506;BME280;32220;49.808;9.968;2023-06-01T01:43:41;99102.50;;;15.97;50.63
46506;BME280;32220;49.808;9.968;2023-06-01T01:46:18;99091.47;;;15.90;50.83
46506;BME280;32220;49.808;9.968;2023-06-01T01:48:54;99092.94;;;15.94;50.50
46506;BME280;32220;49.808;9.968;2023-06-01T01:51:30;99096.69;;;15.92;50.98
46506;BME280;32220;49.808;9.968;2023-06-01T01:54:00;99094.38;;;15.87;50.94
46506;BME280;32220;49.808;9.968;2023-06-01T01:56:29;99094.63;;;15.84;50.84
46506;BME280;32220;49.808;9.968;2023-06-01T01:58:59;99090.53;;;15.80;50.61
46506;BME280;32220;49.808;9.968;2023-06-01T02:01:28;99097.81;;;15.78;50.46
46506;BME280;32220;49.808;9.968;2023-06-01T02:04:00;99091.00;;;15.74;50.53
46506;BME280;32220;49.808;9.968;2023-06-01T02:06:29;99089.56;;;15.70;50.48
46506;BME280;32220;49.808;9.968;2023-06-01T02:08:57;99087.47;;;15.62;50.74
46506;BME280;32220;49.808;9.968;2023-06-01T02:11:25;99090.66;;;15.56;50.64
46506;BME280;32220;49.808;9.968;2023-06-01T02:13:53;99085.88;;;15.49;50.92
46506;BME280;32220;49.808;9.968;2023-06-01T02:16:22;99089.03;;;15.42;50.81
46506;BME280;32220;49.808;9.968;2023-06-01T02:18:50;99078.84;;;15.36;51.17
46506;BME280;32220;49.808;9.968;2023-06-01T02:21:17;99087.22;;;15.32;51.55
46506;BME280;32220;49.808;9.968;2023-06-01T02:23:45;99080.53;;;15.26;51.31
46506;BME280;32220;49.808;9.968;2023-06-01T02:26:13;99071.03;;;15.11;51.38
46506;BME280;32220;49.808;9.968;2023-06-01T02:28:42;99074.69;;;15.10;51.54
46506;BME280;32220;49.808;9.968;2023-06-01T02:31:10;99079.16;;;15.09;51.38
46506;BME280;32220;49.808;9.968;2023-06-01T02:33:41;99078.56;;;15.06;51.62
46506;BME280;32220;49.808;9.968;2023-06-01T02:36:08;99078.06;;;15.01;51.69
46506;BME280;32220;49.808;9.968;2023-06-01T02:38:36;99076.47;;;14.98;51.52
46506;BME280;32220;49.808;9.968;2023-06-01T02:41:04;99081.44;;;14.92;51.78
46506;BME280;32220;49.808;9.968;2023-06-01T02:43:33;99078.03;;;14.90;51.77
46506;BME280;32220;49.808;9.968;2023-06-01T02:46:01;99075.47;;;14.88;52.13
46506;BME280;32220;49.808;9.968;2023-06-01T02:48:30;99069.53;;;14.85;52.32
46506;BME280;32220;49.808;9.968;2023-06-01T02:50:59;99062.97;;;14.78;51.88
46506;BME280;32220;49.808;9.968;2023-06-01T02:53:27;99069.06;;;14.80;51.90
46506;BME280;32220;49.808;9.968;2023-06-01T02:55:55;99051.31;;;14.67;52.00
46506;BME280;32220;49.808;9.968;2023-06-01T02:58:23;99060.06;;;14.69;51.84
46506;BME280;32220;49.808;9.968;2023-06-01T03:01:01;99066.47;;;14.67;52.22
46506;BME280;32220;49.808;9.968;2023-06-01T03:03:29;99060.50;;;14.63;52.02
46506;BME280;32220;49.808;9.968;2023-06-01T03:05:56;99061.00;;;14.57;52.37
46506;BME280;32220;49.808;9.968;2023-06-01T03:08:52;99059.28;;;14.56;52.38
46506;BME280;32220;49.808;9.968;2023-06-01T03:11:48;99063.13;;;14.52;52.42
46506;BME280;32220;49.808;9.968;2023-06-01T03:14:16;99043.91;;;14.36;52.39
46506;BME280;32220;49.808;9.968;2023-06-01T03:16:45;99066.41;;;14.45;53.11
46506;BME280;32220;49.808;9.968;2023-06-01T03:19:18;99058.72;;;14.40;53.07
46506;BME280;32220;49.808;9.968;2023-06-01T03:21:49;99064.13;;;14.38;53.30
46506;BME280;32220;49.808;9.968;2023-06-01T03:24:22;99059.88;;;14.36;53.15
46506;BME280;32220;49.808;9.968;2023-06-01T03:26:55;99063.75;;;14.32;53.37
46506;BME280;32220;49.808;9.968;2023-06-01T03:29:23;99066.66;;;14.29;53.37
46506;BME280;32220;49.808;9.968;2023-06-01T03:31:51;99066.88;;;14.26;53.94
46506;BME280;32220;49.808;9.968;2023-06-01T03:34:22;99072.41;;;14.23;53.58
46506;BME280;32220;49.808;9.968;2023-06-01T03:36:49;99069.03;;;14.21;53.86
46506;BME280;32220;49.808;9.968;2023-06-01T03:39:18;99076.28;;;14.19;54.08
46506;BME280;32220;49.808;9.968;2023-06-01T03:41:47;99073.63;;;14.19;54.04
46506;BME280;32220;49.808;9.968;2023-06-01T03:44:15;99061.69;;;14.12;53.94
46506;BME280;32220;49.808;9.968;2023-06-01T03:46:44;99066.69;;;14.16;54.20
46506;BME280;32220;49.808;9.968;2023-06-01T03:49:13;99063.19;;;14.16;54.68
46506;BME280;32220;49.808;9.968;2023-06-01T03:51:41;99059.44;;;14.18;54.48
46506;BME280;32220;49.808;9.968;2023-06-01T03:54:09;99069.03;;;14.21;54.64
46506;BME280;32220;49.808;9.968;2023-06-01T03:56:37;99061.75;;;14.23;54.54
46506;BME280;32220;49.808;9.968;2023-06-01T03:59:07;99063.25;;;14.27;55.31
46506;BME280;32220;49.808;9.968;2023-06-01T04:01:36;99067.16;;;14.34;55.01
46506;BME280;32220;49.808;9.968;2023-06-01T04:04:06;99059.41;;;14.31;55.07
46506;BME280;32220;49.808;9.968;2023-06-01T04:06:35;99063.84;;;14.43;55.10
46506;BME280;32220;49.808;9.968;2023-06-01T04:09:04;99059.00;;;14.48;54.87
46506;BME280;32220;49.808;9.968;2023-06-01T04:11:35;99066.53;;;14.54;55.13
46506;BME280;32220;49.808;9.968;2023-06-01T04:14:04;99064.38;;;14.59;55.02
46506;BME280;32220;49.808;9.968;2023-06-01T04:16:34;99063.06;;;14.65;55.38
46506;BME280;32220;49.808;9.968;2023-06-01T04:19:02;99060.16;;;14.68;55.30
46506;BME280;32220;49.808;9.968;2023-06-01T04:21:31;99045.75;;;14.70;55.41
46506;BME280;32220;49.808;9.968;2023-06-01T04:23:59;99067.59;;;14.87;55.47
46506;BME280;32220;49.808;9.968;2023-06-01T04:26:27;99071.50;;;14.94;55.25
46506;BME280;32220;49.808;9.968;2023-06-01T04:28:58;99064.63;;;15.02;55.15
46506;BME280;32220;49.808;9.968;2023-06-01T04:31:27;99058.94;;;15.07;54.89
46506;BME280;32220;49.808;9.968;2023-06-01T04:33:56;99068.66;;;15.19;55.14
46506;BME280;32220;49.808;9.968;2023-06-01T04:36:28;99073.25;;;15.28;54.69
46506;BME280;32220;49.808;9.968;2023-06-01T04:38:58;99072.75;;;15.34;55.02
46506;BME280;32220;49.808;9.968;2023-06-01T04:41:27;99073.59;;;15.46;55.21
46506;BME280;32220;49.808;9.968;2023-06-01T04:43:57;99073.03;;;15.54;55.96
46506;BME280;32220;49.808;9.968;2023-06-01T04:46:25;99067.94;;;15.62;55.86
46506;BME280;32220;49.808;9.968;2023-06-01T04:48:59;99061.41;;;15.66;55.65
46506;BME280;32220;49.808;9.968;2023-06-01T04:51:27;99070.84;;;15.81;55.90
46506;BME280;32220;49.808;9.968;2023-06-01T04:53:57;99072.78;;;15.90;55.59
46506;BME280;32220;49.808;9.968;2023-06-01T04:56:25;99073.84;;;15.99;55.76
46506;BME280;32220;49.808;9.968;2023-06-01T04:58:55;99075.75;;;16.08;55.20
46506;BME280;32220;49.808;9.968;2023-06-01T05:01:25;99074.91;;;16.19;55.51
46506;BME280;32220;49.808;9.968;2023-06-01T05:03:56;99068.81;;;16.28;55.29
46506;BME280;32220;49.808;9.968;2023-06-01T05:06:27;99080.31;;;16.39;55.27
46506;BME280;32220;49.808;9.968;2023-06-01T05:08:55;99079.41;;;16.50;54.97
46506;BME280;32220;49.808;9.968;2023-06-01T05:11:24;99081.19;;;16.61;54.45
46506;BME280;32220;49.808;9.968;2023-06-01T05:13:52;99078.59;;;16.70;54.69
46506;BME280;32220;49.808;9.968;2023-06-01T05:16:24;99081.38;;;16.80;54.08
46506;BME280;32220;49.808;9.968;2023-06-01T05:18:52;99074.38;;;16.88;54.06
46506;BME280;32220;49.808;9.968;2023-06-01T05:21:20;99091.09;;;17.02;53.85
46506;BME280;32220;49.808;9.968;2023-06-01T05:23:49;99082.28;;;17.11;53.77
46506;BME280;32220;49.808;9.968;2023-06-01T05:26:17;99089.00;;;17.26;53.61
46506;BME280;32220;49.808;9.968;2023-06-01T05:28:45;99095.97;;;17.38;53.47
46506;BME280;32220;49.808;9.968;2023-06-01T05:31:12;99092.09;;;17.52;53.36
46506;BME280;32220;49.808;9.968;2023-06-01T05:33:44;99091.91;;;17.65;53.26
46506;BME280;32220;49.808;9.968;2023-06-01T05:36:12;99090.09;;;17.75;53.00
46506;BME280;32220;49.808;9.968;2023-06-01T05:38:41;99094.66;;;17.84;52.82
46506;BME280;32220;49.808;9.968;2023-06-01T05:41:10;99089.88;;;17.97;52.87
46506;BME280;32220;49.808;9.968;2023-06-01T05:43:37;99049.22;;;17.82;52.65
46506;BME280;32220;49.808;9.968;2023-06-01T05:46:06;99064.94;;;18.06;52.50
46506;BME280;32220;49.808;9.968;2023-06-01T05:48:34;99087.44;;;18.34;52.22
46506;BME280;32220;49.808;9.968;2023-06-01T05:51:02;99078.84;;;18.50;51.62
46506;BME280;32220;49.808;9.968;2023-06-01T05:53:29;99064.00;;;18.55;51.69
46506;BME280;32220;49.808;9.968;2023-06-01T05:55:57;99082.97;;;18.73;51.57
46506;BME280;32220;49.808;9.968;2023-06-01T05:58:26;99083.81;;;18.83;51.61
46506;BME280;32220;49.808;9.968;2023-06-01T06:00:54;99072.19;;;18.92;51.12
46506;BME280;32220;49.808;9.968;2023-06-01T06:03:22;99077.56;;;19.12;51.09
46506;BME280;32220;49.808;9.968;2023-06-01T06:05:52;99087.66;;;19.37;50.83
46506;BME280;32220;49.808;9.968;2023-06-01T06:08:20;99091.44;;;19.54;50.83
46506;BME280;32220;49.808;9.968;2023-06-01T06:10:47;99085.06;;;19.64;50.37
46506;BME280;32220;49.808;9.968;2023-06-01T06:13:15;99093.31;;;19.81;50.30
46506;BME280;32220;49.808;9.968;2023-06-01T06:15:44;99094.53;;;19.96;50.40
46506;BME280;32220;49.808;9.968;2023-06-01T06:18:12;99083.19;;;20.02;50.22
46506;BME280;32220;49.808;9.968;2023-06-01T06:20:40;99109.75;;;20.32;49.00
46506;BME280;32220;49.808;9.968;2023-06-01T06:23:07;99113.66;;;20.48;48.74
46506;BME280;32220;49.808;9.968;2023-06-01T06:25:35;99107.19;;;20.58;48.58
46506;BME280;32220;49.808;9.968;2023-06-01T06:28:06;99106.22;;;20.77;48.46
46506;BME280;32220;49.808;9.968;2023-06-01T06:30:34;99092.50;;;20.88;47.88
46506;BME280;32220;49.808;9.968;2023-06-01T06:33:03;99106.25;;;21.21;48.01
46506;BME280;32220;49.808;9.968;2023-06-01T06:35:31;99113.28;;;21.39;47.89
46506;BME280;32220;49.808;9.968;2023-06-01T06:37:58;99125.47;;;21.51;46.45
46506;BME280;32220;49.808;9.968;2023-06-01T06:40:26;99127.69;;;21.82;46.09
46506;BME280;32220;49.808;9.968;2023-06-01T06:42:54;99131.38;;;21.99;44.80
46506;BME280;32220;49.808;9.968;2023-06-01T06:45:22;99122.13;;;22.09;44.85
46506;BME280;32220;49.808;9.968;2023-06-01T06:47:49;99139.56;;;22.31;44.04
46506;BME280;32220;49.808;9.968;2023-06-01T06:50:19;99131.53;;;22.47;43.83
46506;BME280;32220;49.808;9.968;2023-06-01T06:52:47;99129.53;;;22.49;44.09
46506;BME280;32220;49.808;9.968;2023-06-01T06:55:14;99131.56;;;22.64;43.76
46506;BME280;32220;49.808;9.968;2023-06-01T06:57:42;99127.91;;;22.81;43.03
46506;BME280;32220;49.808;9.968;2023-06-01T07:00:13;99132.66;;;22.95;42.49
46506;BME280;32220;49.808;9.968;2023-06-01T07:02:41;99119.47;;;23.24;42.94
46506;BME280;32220;49.808;9.968;2023-06-01T07:05:10;99132.31;;;23.55;42.55
46506;BME280;32220;49.808;9.968;2023-06-01T07:07:40;99134.66;;;23.66;41.95
46506;BME280;32220;49.808;9.968;2023-06-01T07:10:08;99146.13;;;23.76;40.96
46506;BME280;32220;49.808;9.968;2023-06-01T07:12:36;99135.94;;;23.94;41.50
46506;BME280;32220;49.808;9.968;2023-06-01T07:15:04;99120.06;;;23.91;40.02
46506;BME280;32220;49.808;9.968;2023-06-01T07:17:32;99139.72;;;24.24;40.41
46506;BME280;32220;49.808;9.968;2023-06-01T07:20:02;99139.50;;;24.42;40.54
46506;BME280;32220;49.808;9.968;2023-06-01T07:22:32;99140.72;;;24.62;39.84
46506;BME280;32220;49.808;9.968;2023-06-01T07:25:02;99141.78;;;24.84;39.72
46506;BME280;32220;49.808;9.968;2023-06-01T07:27:31;99143.34;;;25.24;38.92
46506;BME280;32220;49.808;9.968;2023-06-01T07:30:01;99165.03;;;25.99;36.82
46506;BME280;32220;49.808;9.968;2023-06-01T07:32:29;99177.09;;;26.92;34.74
46506;BME280;32220;49.808;9.968;2023-06-01T07:34:57;99167.09;;;27.84;34.67
46506;BME280;32220;49.808;9.968;2023-06-01T07:37:25;99181.50;;;28.40;33.27
46506;BME280;32220;49.808;9.968;2023-06-01T07:39:53;99173.47;;;28.67;33.66
46506;BME280;32220;49.808;9.968;2023-06-01T07:42:23;99193.78;;;28.64;31.13
46506;BME280;32220;49.808;9.968;2023-06-01T07:44:50;99164.19;;;28.54;33.43
46506;BME280;32220;49.808;9.968;2023-06-01T07:47:18;99165.47;;;28.65;33.78
46506;BME280;32220;49.808;9.968;2023-06-01T07:49:47;99185.13;;;29.08;31.58
46506;BME280;32220;49.808;9.968;2023-06-01T07:52:15;99177.88;;;30.01;31.52
46506;BME280;32220;49.808;9.968;2023-06-01T07:54:43;99181.50;;;31.35;29.46
46506;BME280;32220;49.808;9.968;2023-06-01T07:57:11;99194.81;;;32.86;27.65
46506;BME280;32220;49.808;9.968;2023-06-01T07:59:40;99204.66;;;34.00;25.81
46506;BME280;32220;49.808;9.968;2023-06-01T08:02:07;99209.78;;;34.67;25.58
46506;BME280;32220;49.808;9.968;2023-06-01T08:04:36;99210.38;;;34.69;25.24
46506;BME280;32220;49.808;9.968;2023-06-01T08:07:05;99219.22;;;34.71;24.13
46506;BME280;32220;49.808;9.968;2023-06-01T08:09:35;99206.88;;;35.13;24.37
46506;BME280;32220;49.808;9.968;2023-06-01T08:12:03;99219.69;;;35.48;22.22
46506;BME280;32220;49.808;9.968;2023-06-01T08:14:31;99211.34;;;36.26;22.66
46506;BME280;32220;49.808;9.968;2023-06-01T08:17:01;99191.00;;;36.93;21.70
46506;BME280;32220;49.808;9.968;2023-06-01T08:19:29;99180.84;;;37.25;22.34
46506;BME280;32220;49.808;9.968;2023-06-01T08:21:57;99212.00;;;37.48;21.12
46506;BME280;32220;49.808;9.968;2023-06-01T08:24:25;99211.50;;;37.51;21.28
46506;BME280;32220;49.808;9.968;2023-06-01T08:27:15;99202.19;;;37.62;21.87
46506;BME280;32220;49.808;9.968;2023-06-01T08:29:45;99199.78;;;37.38;21.69
46506;BME280;32220;49.808;9.968;2023-06-01T08:32:16;99194.63;;;37.20;21.34
46506;BME280;32220;49.808;9.968;2023-06-01T08:34:46;99198.44;;;37.41;22.22
46506;BME280;32220;49.808;9.968;2023-06-01T08:37:13;99174.06;;;37.65;22.73
46506;BME280;32220;49.808;9.968;2023-06-01T08:39:41;99187.50;;;37.88;20.62
46506;BME280;32220;49.808;9.968;2023-06-01T08:42:14;99189.75;;;37.91;21.08
46506;BME280;32220;49.808;9.968;2023-06-01T08:44:43;99197.91;;;37.71;21.81
46506;BME280;32220;49.808;9.968;2023-06-01T08:47:10;99190.66;;;37.38;22.82
46506;BME280;32220;49.808;9.968;2023-06-01T08:49:41;99178.97;;;37.04;22.32
46506;BME280;32220;49.808;9.968;2023-06-01T08:52:12;99177.94;;;36.66;22.84
46506;BME280;32220;49.808;9.968;2023-06-01T08:54:40;99182.63;;;36.44;22.06
46506;BME280;32220;49.808;9.968;2023-06-01T08:57:08;99178.78;;;36.07;22.19
46506;BME280;32220;49.808;9.968;2023-06-01T08:59:36;99181.38;;;35.80;22.60
46506;BME280;32220;49.808;9.968;2023-06-01T09:12:52;99164.00;;;35.17;23.47
46506;BME280;32220;49.808;9.968;2023-06-01T09:15:52;99157.13;;;35.32;23.65
46506;BME280;32220;49.808;9.968;2023-06-01T09:18:26;99156.72;;;35.40;23.47
46506;BME280;32220;49.808;9.968;2023-06-01T09:21:20;99164.66;;;35.24;22.37
46506;BME280;32220;49.808;9.968;2023-06-01T09:23:55;99157.56;;;35.57;22.20
46506;BME280;32220;49.808;9.968;2023-06-01T09:26:49;99153.97;;;35.56;22.05
46506;BME280;32220;49.808;9.968;2023-06-01T09:29:24;99154.22;;;35.55;20.53
46506;BME280;32220;49.808;9.968;2023-06-01T09:32:19;99165.88;;;36.29;20.23
46506;BME280;32220;49.808;9.968;2023-06-01T09:34:53;99157.75;;;36.83;19.30
46506;BME280;32220;49.808;9.968;2023-06-01T09:37:55;99152.50;;;37.08;20.63
46506;BME280;32220;49.808;9.968;2023-06-01T09:40:29;99164.00;;;37.59;20.08
46506;BME280;32220;49.808;9.968;2023-06-01T09:43:23;99163.81;;;38.50;18.32
46506;BME280;32220;49.808;9.968;2023-06-01T09:46:06;99179.94;;;39.40;17.28
46506;BME280;32220;49.808;9.968;2023-06-01T09:49:04;99171.09;;;39.79;16.97
46506;BME280;32220;49.808;9.968;2023-06-01T09:51:39;99169.25;;;40.59;17.30
46506;BME280;32220;49.808;9.968;2023-06-01T09:54:35;99164.31;;;41.54;16.12
46506;BME280;32220;49.808;9.968;2023-06-01T09:57:10;99162.75;;;41.33;15.99
46506;BME280;32220;49.808;9.968;2023-06-01T10:00:05;99156.59;;;40.28;17.09
46506;BME280;32220;49.808;9.968;2023-06-01T10:02:41;99135.06;;;39.43;18.53
46506;BME280;32220;49.808;9.968;2023-06-01T10:05:35;99153.16;;;38.73;17.88
46506;BME280;32220;49.808;9.968;2023-06-01T10:08:10;99149.41;;;37.95;17.83
46506;BME280;32220;49.808;9.968;2023-06-01T10:11:04;99135.19;;;37.45;19.02
46506;BME280;32220;49.808;9.968;2023-06-01T10:13:38;99122.81;;;37.20;19.75
46506;BME280;32220;49.808;9.968;2023-06-01T10:16:32;99118.03;;;37.43;20.07
46506;BME280;32220;49.808;9.968;2023-06-01T10:19:09;99116.44;;;37.89;20.11
46506;BME280;32220;49.808;9.968;2023-06-01T10:22:04;99125.22;;;38.23;19.35
46506;BME280;32220;49.808;9.968;2023-06-01T10:24:38;99126.25;;;38.06;19.24
46506;BME280;32220;49.808;9.968;2023-06-01T10:27:35;99131.47;;;38.03;18.08
46506;BME280;32220;49.808;9.968;2023-06-01T10:30:12;99108.88;;;37.69;19.07
46506;BME280;32220;49.808;9.968;2023-06-01T10:33:06;99108.75;;;37.59;19.35
46506;BME280;32220;49.808;9.968;2023-06-01T10:36:03;99115.88;;;37.50;18.62
46506;BME280;32220;49.808;9.968;2023-06-01T10:42:37;99102.78;;;37.72;20.20
46506;BME280;32220;49.808;9.968;2023-06-01T10:45:38;99103.88;;;37.34;18.96
46506;BME280;32220;49.808;9.968;2023-06-01T10:48:13;99096.44;;;36.81;19.98
46506;BME280;32220;49.808;9.968;2023-06-01T10:51:20;99087.53;;;36.52;20.61
46506;BME280;32220;49.808;9.968;2023-06-01T10:53:48;99075.31;;;36.48;22.51
46506;BME280;32220;49.808;9.968;2023-06-01T10:56:28;99062.22;;;36.60;21.45
46506;BME280;32220;49.808;9.968;2023-06-01T11:02:04;99064.94;;;36.55;21.97
46506;BME280;32220;49.808;9.968;2023-06-01T11:04:36;99071.03;;;36.57;21.41
46506;BME280;32220;49.808;9.968;2023-06-01T11:07:39;99065.28;;;36.63;21.52
46506;BME280;32220;49.808;9.968;2023-06-01T11:10:07;99060.25;;;36.55;21.74
46506;BME280;32220;49.808;9.968;2023-06-01T11:15:37;99067.63;;;36.50;19.65
46506;BME280;32220;49.808;9.968;2023-06-01T11:21:07;99053.09;;;36.32;21.72
46506;BME280;32220;49.808;9.968;2023-06-01T11:23:39;99061.75;;;36.19;19.64
46506;BME280;32220;49.808;9.968;2023-06-01T11:26:06;99032.31;;;36.25;22.64
46506;BME280;32220;49.808;9.968;2023-06-01T11:28:35;99043.34;;;36.25;21.84
46506;BME280;32220;49.808;9.968;2023-06-01T11:31:03;99034.41;;;36.40;22.25
46506;BME280;32220;49.808;9.968;2023-06-01T11:33:38;99018.28;;;36.53;23.25
46506;BME280;32220;49.808;9.968;2023-06-01T11:36:07;99023.31;;;36.61;21.76
46506;BME280;32220;49.808;9.968;2023-06-01T11:38:41;99017.66;;;36.73;20.87
46506;BME280;32220;49.808;9.968;2023-06-01T11:41:09;99028.69;;;37.00;21.20
46506;BME280;32220;49.808;9.968;2023-06-01T11:43:37;99015.16;;;37.35;21.89
46506;BME280;32220;49.808;9.968;2023-06-01T11:46:06;99021.03;;;37.81;21.60
46506;BME280;32220;49.808;9.968;2023-06-01T11:48:34;99015.25;;;38.60;21.34
46506;BME280;32220;49.808;9.968;2023-06-01T11:51:03;99025.19;;;39.78;18.97
46506;BME280;32220;49.808;9.968;2023-06-01T11:53:31;99024.78;;;40.74;18.03
46506;BME280;32220;49.808;9.968;2023-06-01T11:56:00;99033.72;;;41.39;17.77
46506;BME280;32220;49.808;9.968;2023-06-01T11:58:29;99033.09;;;42.00;17.18
46506;BME280;32220;49.808;9.968;2023-06-01T12:00:58;99042.94;;;42.78;17.32
46506;BME280;32220;49.808;9.968;2023-06-01T12:03:26;99022.38;;;43.57;15.57
46506;BME280;32220;49.808;9.968;2023-06-01T12:05:54;99029.00;;;44.02;15.60
46506;BME280;32220;49.808;9.968;2023-06-01T12:08:22;99025.69;;;44.42;15.85
46506;BME280;32220;49.808;9.968;2023-06-01T12:10:51;99032.22;;;44.73;15.40
46506;BME280;32220;49.808;9.968;2023-06-01T12:13:21;99026.28;;;45.33;15.55
46506;BME280;32220;49.808;9.968;2023-06-01T12:15:51;99018.59;;;46.09;15.50
46506;BME280;32220;49.808;9.968;2023-06-01T12:18:28;99044.31;;;46.85;14.32
46506;BME280;32220;49.808;9.968;2023-06-01T12:20:57;99028.28;;;47.20;14.48
46506;BME280;32220;49.808;9.968;2023-06-01T12:23:24;99028.47;;;47.06;14.06
46506;BME280;32220;49.808;9.968;2023-06-01T12:25:54;99022.19;;;47.01;14.17
46506;BME280;32220;49.808;9.968;2023-06-01T12:28:24;99025.47;;;47.11;13.36
46506;BME280;32220;49.808;9.968;2023-06-01T12:31:07;99025.63;;;47.24;13.69
46506;BME280;32220;49.808;9.968;2023-06-01T12:33:36;99019.34;;;47.44;14.16
46506;BME280;32220;49.808;9.968;2023-06-01T12:36:05;99013.66;;;47.99;13.64
46506;BME280;32220;49.808;9.968;2023-06-01T12:38:37;99012.53;;;48.50;12.79
46506;BME280;32220;49.808;9.968;2023-06-01T12:41:06;99011.97;;;49.19;12.98
46506;BME280;32220;49.808;9.968;2023-06-01T12:43:36;99012.56;;;49.70;12.16
46506;BME280;32220;49.808;9.968;2023-06-01T12:46:04;99010.13;;;50.05;11.45
46506;BME280;32220;49.808;9.968;2023-06-01T12:48:34;99011.50;;;50.11;11.39
46506;BME280;32220;49.808;9.968;2023-06-01T12:51:03;99008.31;;;50.49;11.48
46506;BME280;32220;49.808;9.968;2023-06-01T12:53:31;98993.50;;;50.52;11.37
46506;BME280;32220;49.808;9.968;2023-06-01T12:55:59;98999.59;;;50.66;11.95
46506;BME280;32220;49.808;9.968;2023-06-01T12:58:27;99004.75;;;50.64;10.80
46506;BME280;32220;49.808;9.968;2023-06-01T13:00:57;98998.94;;;50.33;10.64
46506;BME280;32220;49.808;9.968;2023-06-01T13:03:25;98961.13;;;50.34;11.89
46506;BME280;32220;49.808;9.968;2023-06-01T13:05:52;98997.06;;;50.37;9.66
46506;BME280;32220;49.808;9.968;2023-06-01T13:08:20;98975.22;;;49.85;10.98
46506;BME280;32220;49.808;9.968;2023-06-01T13:10:48;98972.91;;;49.87;11.78
46506;BME280;32220;49.808;9.968;2023-06-01T13:13:17;98972.84;;;49.51;11.43
46506;BME280;32220;49.808;9.968;2023-06-01T13:15:45;98970.47;;;49.28;11.35
46506;BME280;32220;49.808;9.968;2023-06-01T13:18:14;98959.69;;;49.18;12.28
46506;BME280;32220;49.808;9.968;2023-06-01T13:20:42;98948.47;;;48.77;11.49
46506;BME280;32220;49.808;9.968;2023-06-01T13:23:10;98948.06;;;48.24;11.45
46506;BME280;32220;49.808;9.968;2023-06-01T13:25:38;98961.75;;;47.76;11.47
46506;BME280;32220;49.808;9.968;2023-06-01T13:28:07;98965.25;;;47.00;11.27
46506;BME280;32220;49.808;9.968;2023-06-01T13:30:35;98953.09;;;46.53;11.77
46506;BME280;32220;49.808;9.968;2023-06-01T13:33:03;98947.81;;;46.52;13.04
46506;BME280;32220;49.808;9.968;2023-06-01T13:35:32;98955.38;;;46.51;12.09
46506;BME280;32220;49.808;9.968;2023-06-01T13:38:00;98945.19;;;46.29;12.58
46506;BME280;32220;49.808;9.968;2023-06-01T13:40:28;98942.50;;;46.15;13.24
46506;BME280;32220;49.808;9.968;2023-06-01T13:42:56;98937.22;;;46.14;13.22
46506;BME280;32220;49.808;9.968;2023-06-01T13:45:24;98939.53;;;46.12;13.36
46506;BME280;32220;49.808;9.968;2023-06-01T13:47:53;98912.03;;;46.23;13.77